Antlers Park, Minnesota
Current Conditions -  °F | °C
As of 8:45 PM on Wednesday 26 Nov 2014 (Local Time) from KLVN Reporting Station
Overcast Overcast  
Wind Chill:   Ceiling: 6500
Heat Index: 19°   Visibility: 10mi
Dew Point: 12°   Wind: 12mph
Humidity: 74%   Direction: 350°N
Pressure: 30.31"   Gusts: NA
Location:  44.6349°N, 93.283°W
Report Text: KLVN 270245Z AUTO 35010KT 10SM SCT028 BKN065 OVC110 M07/M11 A3031 RMK AO2
Loading
Personal Weather Stations






























Interactive Weather Map New forecast layout! Learn more

10-Day Weather Forecast

Advertisements
Track Severe Weather on mobile